createdAt,value
2018-05-25T00:01:37.375Z,36.67
2018-05-25T00:04:03.585Z,34.87
2018-05-25T00:06:29.797Z,35.57
2018-05-25T00:08:55.976Z,36.17
2018-05-25T00:11:22.162Z,36.00
2018-05-25T00:13:48.360Z,38.17
2018-05-25T00:16:14.563Z,37.30
2018-05-25T00:18:41.474Z,38.27
2018-05-25T00:21:07.677Z,39.67
2018-05-25T00:23:33.852Z,37.93
2018-05-25T00:26:00.842Z,39.30
2018-05-25T00:28:27.021Z,40.47
2018-05-25T00:30:53.234Z,38.43
2018-05-25T00:33:19.434Z,39.70
2018-05-25T00:35:45.627Z,40.97
2018-05-25T00:38:11.865Z,41.23
2018-05-25T00:40:38.134Z,40.43
2018-05-25T00:43:04.327Z,40.83
2018-05-25T00:45:30.548Z,39.07
2018-05-25T00:47:56.721Z,41.30
2018-05-25T00:50:22.927Z,40.47
2018-05-25T00:52:49.124Z,39.87
2018-05-25T00:55:27.644Z,40.13
2018-05-25T00:57:53.822Z,41.80
2018-05-25T01:00:19.992Z,40.03
2018-05-25T01:02:46.191Z,41.00
2018-05-25T01:05:12.378Z,40.53
2018-05-25T01:07:38.562Z,41.17
2018-05-25T01:10:05.398Z,39.93
2018-05-25T01:12:31.615Z,40.93
2018-05-25T01:14:58.538Z,40.70
2018-05-25T01:17:24.855Z,37.47
2018-05-25T01:19:51.055Z,41.73
2018-05-25T01:22:17.962Z,38.93
2018-05-25T01:24:44.166Z,40.03
2018-05-25T01:27:10.374Z,39.97
2018-05-25T01:29:36.548Z,39.03
2018-05-25T01:32:02.795Z,41.70
2018-05-25T01:34:28.963Z,40.97
2018-05-25T01:36:55.149Z,42.50
2018-05-25T01:39:21.318Z,41.33
2018-05-25T01:41:47.518Z,43.97
2018-05-25T01:44:13.703Z,40.70
2018-05-25T01:46:39.899Z,45.47
2018-05-25T01:49:06.090Z,41.87
2018-05-25T01:51:32.283Z,39.93
2018-05-25T01:53:58.475Z,44.03
2018-05-25T01:56:24.694Z,42.17
2018-05-25T01:58:50.889Z,44.67
2018-05-25T02:01:17.101Z,43.20
2018-05-25T02:03:44.044Z,44.13
2018-05-25T02:06:10.234Z,42.40
2018-05-25T02:08:36.421Z,41.37
2018-05-25T02:11:02.642Z,42.83
2018-05-25T02:13:28.851Z,43.37
2018-05-25T02:15:55.779Z,44.03
2018-05-25T02:18:21.970Z,44.20
2018-05-25T02:20:48.156Z,41.03
2018-05-25T02:23:14.371Z,44.67
2018-05-25T02:25:41.277Z,46.00
2018-05-25T02:28:07.468Z,44.53
2018-05-25T02:30:34.261Z,44.90
2018-05-25T02:33:00.476Z,42.83
2018-05-25T02:35:26.660Z,44.20
2018-05-25T02:37:52.853Z,45.90
2018-05-25T02:40:19.028Z,42.37
2018-05-25T02:42:45.244Z,44.50
2018-05-25T02:45:11.447Z,43.00
2018-05-25T02:47:37.650Z,45.70
2018-05-25T02:50:04.651Z,41.33
2018-05-25T02:52:30.862Z,43.10
2018-05-25T02:54:57.029Z,45.50
2018-05-25T02:57:23.614Z,42.47
2018-05-25T02:59:49.791Z,45.13
2018-05-25T03:02:15.993Z,42.87
2018-05-25T03:04:42.158Z,46.30
2018-05-25T03:07:08.454Z,44.97
2018-05-25T03:09:34.620Z,43.47
2018-05-25T03:12:00.810Z,42.73
2018-05-25T03:14:27.021Z,43.37
2018-05-25T03:16:53.957Z,43.47
2018-05-25T03:19:20.128Z,43.20
2018-05-25T03:21:46.297Z,43.67
2018-05-25T03:24:12.486Z,45.73
2018-05-25T03:26:45.621Z,46.40
2018-05-25T03:29:11.814Z,44.80
2018-05-25T03:31:38.010Z,43.70
2018-05-25T03:34:04.229Z,47.63
2018-05-25T03:36:30.410Z,44.73
2018-05-25T03:38:57.325Z,43.90
2018-05-25T03:41:23.508Z,43.40
2018-05-25T03:43:49.701Z,45.50
2018-05-25T03:46:16.613Z,45.30
2018-05-25T03:48:42.861Z,46.60
2018-05-25T03:51:09.039Z,45.10
2018-05-25T03:53:35.251Z,43.07
2018-05-25T03:56:01.427Z,43.83
2018-05-25T03:58:50.515Z,41.47
2018-05-25T04:01:28.830Z,47.10
2018-05-25T04:03:55.079Z,42.43
2018-05-25T04:06:21.258Z,44.33
2018-05-25T04:08:47.525Z,43.27
2018-05-25T04:11:13.714Z,45.93
2018-05-25T04:13:40.763Z,45.10
2018-05-25T04:16:06.968Z,45.40
2018-05-25T04:18:33.170Z,43.30
2018-05-25T04:20:59.346Z,44.30
2018-05-25T04:23:25.543Z,43.67
2018-05-25T04:25:51.734Z,40.03
2018-05-25T04:28:17.934Z,42.60
2018-05-25T04:30:44.122Z,43.07
2018-05-25T04:33:10.337Z,42.10
2018-05-25T04:35:36.646Z,41.60
2018-05-25T04:38:02.914Z,40.10
2018-05-25T04:40:29.094Z,41.53
2018-05-25T04:42:55.277Z,43.00
2018-05-25T04:45:21.462Z,42.73
2018-05-25T04:47:47.652Z,39.83
2018-05-25T04:50:13.834Z,40.77
2018-05-25T04:52:40.196Z,40.37
2018-05-25T04:55:06.426Z,41.63
2018-05-25T04:57:32.613Z,42.33
2018-05-25T04:59:58.850Z,41.30
2018-05-25T05:02:25.030Z,42.63
2018-05-25T05:04:52.033Z,43.33
2018-05-25T05:07:18.165Z,39.83
2018-05-25T05:09:44.378Z,40.77
2018-05-25T05:12:10.584Z,39.13
2018-05-25T05:14:36.789Z,38.43
2018-05-25T05:17:02.973Z,36.80
2018-05-25T05:19:29.220Z,38.50
2018-05-25T05:21:55.401Z,39.73
2018-05-25T05:24:21.585Z,38.20
2018-05-25T05:26:47.810Z,37.87
2018-05-25T05:29:14.035Z,38.33
2018-05-25T05:31:40.239Z,36.10
2018-05-25T05:34:06.491Z,34.67
2018-05-25T05:36:32.671Z,36.53
2018-05-25T05:38:58.898Z,36.07
2018-05-25T05:41:25.121Z,36.10
2018-05-25T05:43:51.322Z,36.80
2018-05-25T05:46:17.503Z,35.27
2018-05-25T05:48:43.685Z,44.00
2018-05-25T05:51:09.970Z,36.53
2018-05-25T05:53:36.154Z,35.30
2018-05-25T05:56:02.362Z,35.50
2018-05-25T05:58:28.538Z,33.00
2018-05-25T06:00:54.840Z,32.07
2018-05-25T06:03:21.053Z,37.70
2018-05-25T06:05:47.263Z,35.90
2018-05-25T06:08:13.466Z,35.23
2018-05-25T06:10:39.707Z,31.93
2018-05-25T06:13:05.886Z,33.70
2018-05-25T06:15:32.082Z,33.47
2018-05-25T06:17:59.057Z,31.80
2018-05-25T06:20:25.263Z,31.60
2018-05-25T06:22:51.461Z,31.30
2018-05-25T06:25:17.652Z,28.40
2018-05-25T06:27:43.849Z,29.53
2018-05-25T06:30:10.094Z,28.03
2018-05-25T06:32:36.318Z,25.33
2018-05-25T06:35:02.561Z,25.30
2018-05-25T06:37:28.779Z,25.20
2018-05-25T06:39:55.006Z,23.30
2018-05-25T06:42:21.202Z,22.83
2018-05-25T06:44:48.170Z,24.37
2018-05-25T06:47:14.361Z,22.93
2018-05-25T06:49:40.594Z,22.60
2018-05-25T06:52:07.500Z,21.90
2018-05-25T06:54:33.702Z,24.80
2018-05-25T06:56:59.882Z,23.13
2018-05-25T06:59:26.078Z,22.00
2018-05-25T07:01:52.326Z,21.40
2018-05-25T07:04:18.534Z,21.37
2018-05-25T07:06:44.735Z,22.13
2018-05-25T07:09:11.415Z,22.17
2018-05-25T07:11:37.606Z,20.60
2018-05-25T07:14:03.982Z,23.40
2018-05-25T07:16:30.165Z,21.97
2018-05-25T07:18:56.377Z,29.00
2018-05-25T07:21:22.589Z,57.33
2018-05-25T07:23:48.775Z,24.70
2018-05-25T07:26:15.015Z,27.87
2018-05-25T07:28:41.330Z,32.23
2018-05-25T07:31:07.574Z,33.97
2018-05-25T07:33:33.776Z,53.30
2018-05-25T07:35:59.971Z,57.20
2018-05-25T07:38:26.156Z,60.47
2018-05-25T07:40:52.362Z,49.30
2018-05-25T07:43:18.551Z,38.33
2018-05-25T07:45:44.754Z,42.93
2018-05-25T07:48:10.930Z,42.90
2018-05-25T07:50:37.130Z,23.57
2018-05-25T07:53:03.366Z,24.70
2018-05-25T07:55:29.570Z,23.67
2018-05-25T07:57:55.744Z,23.73
2018-05-25T08:00:21.952Z,26.63
2018-05-25T08:02:48.146Z,33.90
2018-05-25T08:05:14.355Z,31.13
2018-05-25T08:07:40.546Z,30.80
2018-05-25T08:10:06.801Z,22.80
2018-05-25T08:12:32.982Z,24.00
2018-05-25T08:14:59.186Z,24.20
2018-05-25T08:17:27.160Z,22.60
2018-05-25T08:19:53.366Z,21.60
2018-05-25T08:22:20.286Z,22.80
2018-05-25T08:24:46.488Z,22.40
2018-05-25T08:27:12.666Z,27.00
2018-05-25T08:29:39.636Z,33.57
2018-05-25T08:32:05.866Z,34.60
2018-05-25T08:34:38.049Z,40.77
2018-05-25T08:37:04.248Z,41.00
2018-05-25T08:39:30.441Z,43.07
2018-05-25T08:41:56.643Z,44.10
2018-05-25T08:44:22.865Z,40.67
2018-05-25T08:46:49.127Z,33.20
2018-05-25T08:49:15.303Z,40.27
2018-05-25T08:51:41.695Z,36.17
2018-05-25T08:54:08.741Z,38.00
2018-05-25T08:56:34.935Z,32.80
2018-05-25T08:59:01.114Z,32.73
2018-05-25T09:01:27.476Z,32.20
2018-05-25T09:03:53.669Z,30.77
2018-05-25T09:06:19.889Z,29.30
2018-05-25T09:08:46.074Z,30.50
2018-05-25T09:11:12.261Z,31.27
2018-05-25T09:13:38.538Z,28.03
2018-05-25T09:16:04.801Z,28.50
2018-05-25T09:18:31.119Z,29.30
2018-05-25T09:20:58.053Z,24.90
2018-05-25T09:23:24.517Z,23.03
2018-05-25T09:25:50.813Z,23.47
2018-05-25T09:28:17.037Z,26.37
2018-05-25T09:30:43.271Z,23.70
2018-05-25T09:33:09.554Z,24.00
2018-05-25T09:35:35.834Z,25.37
2018-05-25T09:38:02.126Z,24.30
2018-05-25T09:40:28.407Z,22.57
2018-05-25T09:42:54.789Z,24.83
2018-05-25T09:45:20.974Z,17.47
2018-05-25T09:47:47.426Z,81.77
2018-05-25T09:50:13.609Z,19.57
2018-05-25T09:52:39.875Z,16.20
2018-05-25T09:55:06.131Z,18.10
2018-05-25T09:57:32.350Z,23.00
2018-05-25T09:59:58.569Z,21.40
2018-05-25T10:02:24.951Z,19.40
2018-05-25T10:04:51.130Z,20.93
2018-05-25T10:07:17.389Z,20.90
2018-05-25T10:09:43.584Z,20.53
2018-05-25T10:12:09.810Z,20.40
2018-05-25T10:14:36.039Z,21.90
2018-05-25T10:17:02.253Z,19.87
2018-05-25T10:19:28.453Z,23.27
2018-05-25T10:21:55.398Z,23.73
2018-05-25T10:24:21.592Z,25.80
2018-05-25T10:26:47.869Z,23.00
2018-05-25T10:29:14.047Z,23.73
2018-05-25T10:31:40.270Z,22.40
2018-05-25T10:34:06.475Z,20.00
2018-05-25T10:36:32.701Z,22.00
2018-05-25T10:38:58.878Z,20.77
2018-05-25T10:41:25.083Z,18.13
2018-05-25T10:43:51.251Z,16.10
2018-05-25T10:46:18.186Z,15.80
2018-05-25T10:48:44.384Z,15.87
2018-05-25T10:51:10.621Z,17.53
2018-05-25T10:53:36.810Z,16.23
2018-05-25T10:56:03.078Z,17.13
2018-05-25T10:58:29.267Z,17.03
2018-05-25T11:00:55.454Z,14.80
2018-05-25T11:03:22.410Z,15.83
2018-05-25T11:05:49.331Z,15.20
2018-05-25T11:08:15.540Z,16.97
2018-05-25T11:10:41.733Z,16.10
2018-05-25T11:13:07.967Z,16.67
2018-05-25T11:15:34.182Z,16.00
2018-05-25T11:18:00.424Z,15.50
2018-05-25T11:20:26.656Z,17.73
2018-05-25T11:22:52.959Z,17.10
2018-05-25T11:25:19.233Z,15.60
2018-05-25T11:27:45.463Z,16.30
2018-05-25T11:30:11.630Z,14.70
2018-05-25T11:32:37.850Z,16.70
2018-05-25T11:35:04.053Z,16.13
2018-05-25T11:37:30.261Z,17.50
2018-05-25T11:39:56.438Z,19.17
2018-05-25T11:42:23.378Z,16.57
2018-05-25T11:44:49.584Z,19.40
2018-05-25T11:47:15.787Z,15.67
2018-05-25T11:49:41.988Z,17.63
2018-05-25T11:52:08.189Z,16.97
2018-05-25T11:54:35.096Z,18.30
2018-05-25T11:57:01.292Z,20.63
2018-05-25T11:59:27.518Z,19.10
2018-05-25T12:01:53.790Z,19.67
2018-05-25T12:04:20.000Z,20.20
2018-05-25T12:06:46.214Z,20.47
2018-05-25T12:09:12.462Z,18.70
2018-05-25T12:11:38.661Z,19.20
2018-05-25T12:14:04.889Z,20.33
2018-05-25T12:16:31.091Z,18.40
2018-05-25T12:18:57.311Z,18.87
2018-05-25T12:21:23.482Z,20.00
2018-05-25T12:23:49.727Z,18.93
2018-05-25T12:26:15.927Z,18.93
2018-05-25T12:28:42.117Z,19.33
2018-05-25T12:31:09.061Z,18.00
2018-05-25T12:33:36.140Z,17.93
2018-05-25T12:36:02.370Z,18.20
2018-05-25T12:38:28.774Z,18.53
2018-05-25T12:40:55.043Z,16.83
2018-05-25T12:43:21.358Z,17.87
2018-05-25T12:45:47.575Z,16.00
2018-05-25T12:48:13.873Z,18.47
2018-05-25T12:50:40.963Z,18.33
2018-05-25T12:53:07.187Z,15.30
2018-05-25T12:55:33.418Z,16.33
2018-05-25T12:57:59.657Z,15.63
2018-05-25T13:00:25.845Z,15.47
2018-05-25T13:02:52.050Z,17.33
2018-05-25T13:05:19.007Z,14.20
2018-05-25T13:07:45.979Z,15.57
2018-05-25T13:10:12.230Z,16.47
2018-05-25T13:12:38.433Z,16.07
2018-05-25T13:15:04.702Z,13.73
2018-05-25T13:17:30.915Z,15.10
2018-05-25T13:19:57.210Z,14.20
2018-05-25T13:22:23.418Z,15.37
2018-05-25T13:24:50.449Z,13.90
2018-05-25T13:27:16.655Z,14.67
2018-05-25T13:29:42.891Z,16.30
2018-05-25T13:32:09.104Z,14.57
2018-05-25T13:34:35.384Z,12.57
2018-05-25T13:37:02.490Z,12.07
2018-05-25T13:39:28.686Z,12.87
2018-05-25T13:41:54.895Z,11.67
2018-05-25T13:44:21.192Z,11.57
2018-05-25T13:46:47.912Z,10.67
2018-05-25T13:49:14.170Z,10.43
2018-05-25T13:51:40.363Z,10.03
2018-05-25T13:54:06.572Z,10.73
2018-05-25T13:56:32.771Z,11.13
2018-05-25T13:58:58.990Z,10.40
2018-05-25T14:01:25.938Z,10.57
2018-05-25T14:03:52.272Z,9.83
2018-05-25T14:06:25.298Z,11.07
2018-05-25T14:08:51.489Z,10.13
2018-05-25T14:11:17.698Z,11.43
2018-05-25T14:13:43.904Z,12.10
2018-05-25T14:16:10.118Z,10.00
2018-05-25T14:18:36.413Z,10.07
2018-05-25T14:21:02.715Z,10.60
2018-05-25T14:23:29.713Z,10.47
2018-05-25T14:25:56.649Z,9.73
2018-05-25T14:28:23.033Z,10.53
2018-05-25T14:30:50.684Z,9.70
2018-05-25T14:33:16.948Z,8.20
2018-05-25T14:35:43.186Z,7.53
2018-05-25T14:38:09.378Z,7.00
2018-05-25T14:40:36.343Z,7.47
2018-05-25T14:43:02.836Z,7.80
2018-05-25T14:45:29.124Z,7.77
2018-05-25T14:47:55.324Z,8.30
2018-05-25T14:50:21.532Z,7.90
2018-05-25T14:52:48.519Z,7.20
2018-05-25T14:55:14.743Z,7.50
2018-05-25T14:57:40.970Z,6.87
2018-05-25T15:00:07.209Z,8.20
2018-05-25T15:02:33.529Z,7.83
2018-05-25T15:04:59.872Z,7.60
2018-05-25T15:07:26.067Z,7.87
2018-05-25T15:09:52.288Z,7.10
2018-05-25T15:12:19.230Z,7.80
2018-05-25T15:14:45.455Z,8.10
2018-05-25T15:17:11.653Z,7.47
2018-05-25T15:19:37.878Z,7.23
2018-05-25T15:22:04.072Z,6.93
2018-05-25T15:24:30.293Z,7.13
2018-05-25T15:26:56.579Z,6.83
2018-05-25T15:29:22.867Z,7.50
2018-05-25T15:31:49.091Z,6.20
2018-05-25T15:34:15.310Z,7.63
2018-05-25T15:36:41.497Z,6.87
2018-05-25T15:39:07.822Z,6.83
2018-05-25T15:41:34.038Z,6.27
2018-05-25T15:44:00.354Z,6.43
2018-05-25T15:46:26.559Z,6.23
2018-05-25T15:48:53.062Z,8.00
2018-05-25T15:51:19.258Z,6.20
2018-05-25T15:53:45.466Z,7.53
2018-05-25T15:56:11.699Z,6.70
2018-05-25T15:58:37.903Z,8.07
2018-05-25T16:01:04.298Z,6.60
2018-05-25T16:03:31.355Z,7.93
2018-05-25T16:05:57.956Z,7.23
2018-05-25T16:08:24.423Z,6.60
2018-05-25T16:10:50.758Z,7.33
2018-05-25T16:13:17.001Z,7.77
2018-05-25T16:15:43.231Z,7.67
2018-05-25T16:18:09.503Z,6.37
2018-05-25T16:20:35.737Z,8.80
2018-05-25T16:23:02.043Z,8.73
2018-05-25T16:25:28.310Z,8.60
2018-05-25T16:27:55.261Z,8.10
2018-05-25T16:30:22.426Z,7.87
2018-05-25T16:32:48.751Z,8.50
2018-05-25T16:35:15.047Z,8.80
2018-05-25T16:37:41.298Z,12.17
2018-05-25T16:40:08.363Z,9.83
2018-05-25T16:42:34.578Z,7.70
2018-05-25T16:45:01.069Z,8.03
2018-05-25T16:47:28.128Z,9.37
2018-05-25T16:49:54.372Z,7.50
2018-05-25T16:52:21.612Z,7.60
2018-05-25T16:54:47.894Z,7.50
2018-05-25T16:57:14.092Z,7.20
2018-05-25T16:59:40.350Z,7.60
2018-05-25T17:02:06.577Z,7.30
2018-05-25T17:04:32.786Z,7.93
2018-05-25T17:06:58.990Z,8.90
2018-05-25T17:09:25.190Z,24.47
2018-05-25T17:11:51.455Z,8.97
2018-05-25T17:14:17.643Z,11.80
2018-05-25T17:16:44.002Z,9.00
2018-05-25T17:19:10.962Z,12.70
2018-05-25T17:21:37.247Z,27.80
2018-05-25T17:24:03.619Z,7.67
2018-05-25T17:26:30.578Z,8.10
2018-05-25T17:28:56.777Z,6.80
2018-05-25T17:31:23.038Z,6.97
2018-05-25T17:33:49.284Z,7.67
2018-05-25T17:36:15.487Z,7.67
2018-05-25T17:38:41.677Z,6.57
2018-05-25T17:41:08.018Z,9.00
2018-05-25T17:43:34.396Z,6.83
2018-05-25T17:46:00.850Z,8.20
2018-05-25T17:48:27.116Z,6.37
2018-05-25T17:50:53.369Z,6.03
2018-05-25T17:53:19.732Z,7.10
2018-05-25T17:55:46.028Z,8.33
2018-05-25T17:58:12.278Z,9.40
2018-05-25T18:00:38.587Z,8.90
2018-05-25T18:03:04.892Z,10.60
2018-05-25T18:05:31.130Z,10.70
2018-05-25T18:07:57.351Z,10.63
2018-05-25T18:10:23.617Z,13.90
2018-05-25T18:12:49.809Z,41.83
2018-05-25T18:15:16.308Z,17.63
2018-05-25T18:17:43.319Z,31.77
2018-05-25T18:20:10.011Z,36.20
2018-05-25T18:22:36.211Z,20.40
2018-05-25T18:25:02.509Z,8.83
2018-05-25T18:27:28.822Z,9.37
2018-05-25T18:29:55.034Z,12.00
2018-05-25T18:32:22.188Z,9.80
2018-05-25T18:34:48.809Z,10.60
2018-05-25T18:37:16.114Z,12.40
2018-05-25T18:39:42.531Z,10.27
2018-05-25T18:42:08.815Z,12.37
2018-05-25T18:44:34.998Z,11.33
2018-05-25T18:47:01.344Z,11.13
2018-05-25T18:49:27.565Z,9.70
2018-05-25T18:51:54.835Z,8.70
2018-05-25T18:54:33.233Z,11.13
2018-05-25T18:56:59.522Z,8.60
2018-05-25T18:59:26.677Z,9.80
2018-05-25T19:01:52.950Z,10.80
2018-05-25T19:04:19.419Z,8.83
2018-05-25T19:06:45.711Z,12.43
2018-05-25T19:09:11.937Z,8.43
2018-05-25T19:11:38.279Z,9.10
2018-05-25T19:14:04.494Z,9.43
2018-05-25T19:16:31.111Z,10.73
2018-05-25T19:18:57.982Z,10.67
2018-05-25T19:21:24.184Z,11.63
2018-05-25T19:23:50.445Z,11.40
2018-05-25T19:26:16.776Z,11.00
2018-05-25T19:28:42.991Z,9.10
2018-05-25T19:31:09.415Z,11.13
2018-05-25T19:33:35.619Z,9.90
2018-05-25T19:36:01.814Z,10.90
2018-05-25T19:38:28.075Z,10.43
2018-05-25T19:40:54.523Z,9.80
2018-05-25T19:43:20.754Z,10.97
2018-05-25T19:45:46.964Z,11.07
2018-05-25T19:48:13.282Z,11.33
2018-05-25T19:50:39.660Z,11.10
2018-05-25T19:53:06.035Z,10.53
2018-05-25T19:55:32.302Z,11.27
2018-05-25T19:57:58.493Z,10.60
2018-05-25T20:00:25.456Z,10.87
2018-05-25T20:02:51.655Z,11.80
2018-05-25T20:05:17.845Z,12.27
2018-05-25T20:07:44.262Z,12.00
2018-05-25T20:10:10.558Z,11.90
2018-05-25T20:12:36.854Z,10.90
2018-05-25T20:15:03.207Z,11.53
2018-05-25T20:17:30.131Z,10.63
2018-05-25T20:19:56.326Z,11.40
2018-05-25T20:22:22.796Z,11.83
2018-05-25T20:24:49.010Z,11.40
2018-05-25T20:27:15.210Z,11.37
2018-05-25T20:29:41.479Z,11.10
2018-05-25T20:32:07.685Z,12.27
2018-05-25T20:34:34.168Z,12.77
2018-05-25T20:37:00.393Z,13.23
2018-05-25T20:39:26.595Z,12.87
2018-05-25T20:41:52.898Z,12.87
2018-05-25T20:44:19.084Z,12.83
2018-05-25T20:46:45.357Z,13.37
2018-05-25T20:49:11.551Z,12.57
2018-05-25T20:51:37.738Z,13.30
2018-05-25T20:54:03.959Z,13.93
2018-05-25T20:56:30.314Z,13.63
2018-05-25T20:58:56.615Z,14.37
2018-05-25T21:01:23.821Z,15.20
2018-05-25T21:03:50.159Z,13.53
2018-05-25T21:06:16.422Z,15.33
2018-05-25T21:08:42.813Z,14.30
2018-05-25T21:11:09.003Z,13.80
2018-05-25T21:13:35.425Z,14.97
2018-05-25T21:16:02.466Z,15.90
2018-05-25T21:18:28.797Z,14.27
2018-05-25T21:20:55.738Z,14.27
2018-05-25T21:23:21.971Z,14.47
2018-05-25T21:25:48.166Z,14.63
2018-05-25T21:28:14.370Z,13.80
2018-05-25T21:30:40.654Z,15.33
2018-05-25T21:33:06.887Z,15.10
2018-05-25T21:35:33.057Z,14.93
2018-05-25T21:37:59.394Z,16.33
2018-05-25T21:40:25.594Z,16.40
2018-05-25T21:42:51.994Z,15.27
2018-05-25T21:45:18.183Z,16.70
2018-05-25T21:47:44.397Z,17.57
2018-05-25T21:50:10.604Z,15.97
2018-05-25T21:52:38.650Z,17.37
2018-05-25T21:55:04.874Z,17.67
2018-05-25T21:57:31.337Z,17.90
2018-05-25T21:59:57.517Z,17.50
2018-05-25T22:02:23.762Z,19.37
2018-05-25T22:04:50.154Z,17.03
2018-05-25T22:07:16.436Z,17.90
2018-05-25T22:09:43.374Z,17.20
2018-05-25T22:12:09.606Z,17.40
2018-05-25T22:14:36.721Z,18.93
2018-05-25T22:17:02.987Z,18.03
2018-05-25T22:19:30.185Z,19.27
2018-05-25T22:21:56.378Z,18.93
2018-05-25T22:24:22.744Z,19.53
2018-05-25T22:26:48.940Z,18.03
2018-05-25T22:29:15.200Z,19.40
2018-05-25T22:31:41.490Z,20.53
2018-05-25T22:34:07.834Z,18.97
2018-05-25T22:36:34.033Z,19.43
2018-05-25T22:39:00.231Z,18.90
2018-05-25T22:41:26.585Z,21.03
2018-05-25T22:44:04.915Z,20.23
2018-05-25T22:46:43.273Z,20.67
2018-05-25T22:49:21.662Z,21.13
2018-05-25T22:51:59.974Z,19.50
2018-05-25T22:54:34.178Z,20.93
2018-05-25T22:57:00.359Z,19.60
2018-05-25T22:59:26.604Z,21.03
2018-05-25T23:01:52.873Z,19.50
2018-05-25T23:04:19.100Z,20.77
2018-05-25T23:06:45.293Z,23.33
2018-05-25T23:09:11.484Z,21.73
2018-05-25T23:11:37.944Z,22.30
2018-05-25T23:14:05.104Z,23.40
2018-05-25T23:16:32.036Z,24.10
2018-05-25T23:18:58.355Z,22.43
2018-05-25T23:21:24.633Z,22.03
2018-05-25T23:23:50.838Z,21.50
2018-05-25T23:26:17.392Z,22.23
2018-05-25T23:28:43.604Z,22.03
2018-05-25T23:31:09.782Z,23.73
2018-05-25T23:33:36.237Z,23.63
2018-05-25T23:36:02.450Z,23.40
2018-05-25T23:38:28.690Z,23.27
2018-05-25T23:40:54.870Z,23.37
2018-05-25T23:43:21.038Z,23.87
2018-05-25T23:45:47.263Z,23.30
2018-05-25T23:48:13.721Z,22.53
2018-05-25T23:50:39.906Z,23.83
2018-05-25T23:53:06.122Z,22.90
2018-05-25T23:55:32.317Z,22.97
2018-05-25T23:57:58.488Z,22.70
